Terminal Aerodrome Forecast
Issued by NWS

Home | Current Version | Previous Version | Text Only | Print | Product List | Glossary On
Versions: 1 2 3 4 5 6 7 8 9 10 11 12 13
381
FTUS44 KJAN 212324
TAFHKS
TAF
KHKS 212324Z 2200/2224 16009KT P6SM BKN060
     FM220600 17014G18KT P6SM BKN025
     FM220900 17016G22KT P6SM OVC007
     FM221200 17017KT 6SM -RA OVC015
     FM221600 21013G19KT P6SM -RA OVC025
     FM221900 23012G19KT P6SM SCT250=

USA.gov is the U.S. government's official web portal to all federal, state and local government web resources and services.